Time;durP1;ratioP1;P1;durP2;ratioP2;P2;SDS_P1;SDS_P2;PMS_P1;PMS_P2;Temp;Humidity;BMP_temperature;BMP_pressure;BME280_temperature;BME280_humidity;BME280_pressure;Samples;Min_cycle;Max_cycle;Signal;HPM_P1;HPM_P2
2021/08/25 07:21:39;;;;;;;3.90;2.80;;;;;;;;;;6231634;22;20387;-49
2021/08/25 07:24:05;;;;;;;8.73;5.47;;;;;;;;;;6331823;22;20448;-49
2021/08/25 07:26:31;;;;;;;7.15;5.82;;;;;;;;;;6332360;22;20325;-52
2021/08/25 07:28:57;;;;;;;8.13;6.13;;;;;;;;;;6331770;22;20333;-53
2021/08/25 07:31:23;;;;;;;7.25;5.53;;;;;;;;;;6330905;22;20686;-51
2021/08/25 07:33:50;;;;;;;8.00;5.80;;;;;;;;;;6332378;22;20654;-52
2021/08/25 07:36:16;;;;;;;7.65;5.55;;;;;;;;;;6332606;22;20340;-54
2021/08/25 07:38:42;;;;;;;8.90;5.97;;;;;;;;;;6332268;22;20412;-51
2021/08/25 07:41:08;;;;;;;7.00;5.40;;;;;;;;;;6331950;22;20362;-49
2021/08/25 07:43:34;;;;;;;7.65;5.70;;;;;;;;;;6332300;22;20321;-53
2021/08/25 07:46:00;;;;;;;7.95;5.65;;;;;;;;;;6333016;22;20325;-53
2021/08/25 07:48:26;;;;;;;7.57;5.25;;;;;;;;;;6332791;22;20331;-52
2021/08/25 07:50:53;;;;;;;8.30;5.45;;;;;;;;;;6332025;22;20344;-52
2021/08/25 07:53:19;;;;;;;9.43;6.70;;;;;;;;;;6331107;22;20417;-52
2021/08/25 07:55:45;;;;;;;8.85;5.97;;;;;;;;;;6332520;22;20318;-49
2021/08/25 07:58:11;;;;;;;8.15;5.88;;;;;;;;;;6332832;22;20332;-51
2021/08/25 08:00:37;;;;;;;7.95;5.53;;;;;;;;;;6332955;22;20379;-52
2021/08/25 08:03:03;;;;;;;7.43;5.68;;;;;;;;;;6330150;22;20333;-55
2021/08/25 08:05:29;;;;;;;8.73;6.05;;;;;;;;;;6328891;22;20341;-58
2021/08/25 08:07:58;;;;;;;7.88;5.75;;;;;;;;;;6331106;22;20329;-57
2021/08/25 08:10:24;;;;;;;7.53;5.82;;;;;;;;;;6332473;22;20322;-57
2021/08/25 08:12:52;;;;;;;8.23;6.00;;;;;;;;;;6331753;22;20777;-56
2021/08/25 08:15:18;;;;;;;7.87;6.00;;;;;;;;;;6331933;22;20765;-56
2021/08/25 08:17:46;;;;;;;8.93;6.07;;;;;;;;;;6330703;22;20333;-57
2021/08/25 08:20:14;;;;;;;9.00;6.25;;;;;;;;;;6330463;22;20416;-58
2021/08/25 08:22:40;;;;;;;8.37;6.10;;;;;;;;;;6347078;22;20363;-58
2021/08/25 08:25:07;;;;;;;7.35;5.82;;;;;;;;;;6363661;22;20319;-57
2021/08/25 08:27:33;;;;;;;7.75;6.00;;;;;;;;;;6364858;22;20360;-58
2021/08/25 08:30:00;;;;;;;9.43;6.22;;;;;;;;;;6365637;22;20327;-54
2021/08/25 08:32:26;;;;;;;7.30;5.45;;;;;;;;;;6365310;22;20327;-51
2021/08/25 08:34:52;;;;;;;6.90;5.20;;;;;;;;;;6365793;22;20324;-58
2021/08/25 08:37:19;;;;;;;7.63;5.63;;;;;;;;;;6365694;22;20480;-53
2021/08/25 08:39:45;;;;;;;6.80;5.82;;;;;;;;;;6338171;22;20701;-52
2021/08/25 08:42:31;;;;;;;9.02;6.30;;;;;;;;;;6365115;22;20470;-54
2021/08/25 08:44:58;;;;;;;9.63;6.07;;;;;;;;;;6365308;22;20767;-54
2021/08/25 08:47:25;;;;;;;7.23;5.63;;;;;;;;;;6335747;22;20330;-59
2021/08/25 08:49:52;;;;;;;8.70;5.78;;;;;;;;;;6336867;22;20346;-60
2021/08/25 08:52:19;;;;;;;7.95;6.25;;;;;;;;;;6336572;22;20359;-56
2021/08/25 08:54:45;;;;;;;8.45;5.75;;;;;;;;;;6364566;22;20338;-58
2021/08/25 08:57:11;;;;;;;8.23;6.03;;;;;;;;;;6365447;22;20323;-54
2021/08/25 08:59:37;;;;;;;7.72;5.78;;;;;;;;;;6363612;22;20465;-56
2021/08/25 09:02:04;;;;;;;8.27;6.20;;;;;;;;;;6363256;22;20446;-57
2021/08/25 09:04:31;;;;;;;8.80;6.38;;;;;;;;;;6362895;22;20368;-60
2021/08/25 09:06:57;;;;;;;8.65;6.30;;;;;;;;;;6362771;22;20449;-56
2021/08/25 09:09:23;;;;;;;8.40;6.05;;;;;;;;;;6363250;22;20331;-59
2021/08/25 09:11:53;;;;;;;9.85;6.38;;;;;;;;;;6364367;22;20346;-55
2021/08/25 09:14:20;;;;;;;7.10;6.10;;;;;;;;;;6364869;22;20388;-57
2021/08/25 09:16:46;;;;;;;8.00;6.15;;;;;;;;;;6337076;22;20450;-58
2021/08/25 09:19:17;;;;;;;8.93;6.28;;;;;;;;;;6364318;22;20354;-57
2021/08/25 09:21:49;;;;;;;8.83;6.07;;;;;;;;;;6364191;22;20370;-58
2021/08/25 09:24:15;;;;;;;7.43;6.20;;;;;;;;;;6364766;22;20354;-59
2021/08/25 09:27:00;;;;;;;7.85;6.40;;;;;;;;;;6364511;22;20392;-55
2021/08/25 09:29:26;;;;;;;8.65;6.28;;;;;;;;;;6365416;22;20320;-57
2021/08/25 09:31:52;;;;;;;9.20;6.63;;;;;;;;;;6365115;22;20318;-54
2021/08/25 09:34:28;;;;;;;8.13;6.53;;;;;;;;;;6364869;22;20324;-50
2021/08/25 09:37:10;;;;;;;8.75;6.80;;;;;;;;;;6364799;22;20419;-48
2021/08/25 09:39:46;;;;;;;7.88;6.20;;;;;;;;;;6364928;22;20327;-53
2021/08/25 09:42:13;;;;;;;7.35;6.20;;;;;;;;;;6364814;22;20467;-51
2021/08/25 09:44:40;;;;;;;8.27;6.28;;;;;;;;;;6365152;22;20331;-56
2021/08/25 09:47:06;;;;;;;7.45;6.32;;;;;;;;;;6365243;22;20316;-57
2021/08/25 09:49:32;;;;;;;8.53;6.90;;;;;;;;;;6364598;22;20426;-55
2021/08/25 09:51:58;;;;;;;8.13;6.35;;;;;;;;;;6363969;22;20323;-56
2021/08/25 09:54:24;;;;;;;6.78;6.05;;;;;;;;;;6336749;22;20339;-58
2021/08/25 09:56:52;;;;;;;9.55;6.35;;;;;;;;;;6365197;22;20331;-54
2021/08/25 09:59:18;;;;;;;8.95;6.13;;;;;;;;;;6365427;22;20376;-58
2021/08/25 10:01:45;;;;;;;11.57;6.57;;;;;;;;;;6363377;22;20355;-50
2021/08/25 10:04:14;;;;;;;9.57;6.70;;;;;;;;;;6364323;22;21352;-51
2021/08/25 10:06:41;;;;;;;10.27;7.47;;;;;;;;;;6363821;22;20371;-51
2021/08/25 10:09:08;;;;;;;12.23;9.73;;;;;;;;;;6363690;22;20423;-59
2021/08/25 10:11:36;;;;;;;32.13;28.80;;;;;;;;;;6336543;22;20933;-57
2021/08/25 10:14:09;;;;;;;28.23;25.23;;;;;;;;;;6335410;22;20358;-57
2021/08/25 10:16:38;;;;;;;20.67;18.57;;;;;;;;;;6363816;22;20354;-59
2021/08/25 10:19:25;;;;;;;16.83;15.05;;;;;;;;;;6362312;22;20427;-55
2021/08/25 10:21:52;;;;;;;26.90;17.60;;;;;;;;;;6362832;22;20428;-55
2021/08/25 10:24:19;;;;;;;87.07;33.53;;;;;;;;;;6362523;22;20403;-56
2021/08/25 10:27:00;;;;;;;49.40;21.52;;;;;;;;;;6362329;22;20418;-54
2021/08/25 10:29:27;;;;;;;23.38;11.27;;;;;;;;;;6363960;22;20339;-55
2021/08/25 10:31:53;;;;;;;14.65;9.07;;;;;;;;;;6363461;22;20326;-53
2021/08/25 10:34:24;;;;;;;11.02;7.05;;;;;;;;;;6362895;22;20331;-56
2021/08/25 10:36:50;;;;;;;9.90;6.85;;;;;;;;;;6362804;22;20339;-54
2021/08/25 10:39:31;;;;;;;7.47;5.70;;;;;;;;;;6335443;22;20449;-55
2021/08/25 10:41:58;;;;;;;6.50;5.37;;;;;;;;;;6363661;22;20366;-53
2021/08/25 10:44:39;;;;;;;7.88;5.78;;;;;;;;;;6364180;22;20637;-56
2021/08/25 10:47:06;;;;;;;7.10;5.25;;;;;;;;;;6363385;22;20667;-52
2021/08/25 10:49:36;;;;;;;7.18;5.20;;;;;;;;;;6363553;22;20332;-52
2021/08/25 10:52:15;;;;;;;5.45;4.80;;;;;;;;;;6363874;22;20774;-54
2021/08/25 10:54:45;;;;;;;7.15;5.20;;;;;;;;;;6363626;22;20339;-58
2021/08/25 10:57:13;;;;;;;7.25;5.25;;;;;;;;;;6363695;22;20411;-53
2021/08/25 10:59:40;;;;;;;5.63;4.40;;;;;;;;;;6363992;22;20358;-53
2021/08/25 11:02:06;;;;;;;6.50;5.00;;;;;;;;;;6363610;22;20684;-56
2021/08/25 11:04:32;;;;;;;5.85;4.80;;;;;;;;;;6363467;22;20335;-54
2021/08/25 11:07:01;;;;;;;6.53;4.88;;;;;;;;;;6363229;22;20440;-56
2021/08/25 11:09:30;;;;;;;5.70;4.47;;;;;;;;;;6363576;22;20791;-58
2021/08/25 11:12:13;;;;;;;6.00;4.78;;;;;;;;;;6362799;22;20323;-58
2021/08/25 11:14:39;;;;;;;6.47;4.93;;;;;;;;;;6364610;22;20449;-56
2021/08/25 11:17:05;;;;;;;6.97;5.18;;;;;;;;;;6364099;22;20502;-55
2021/08/25 11:19:33;;;;;;;6.63;4.65;;;;;;;;;;6363669;22;20348;-55
2021/08/25 11:22:00;;;;;;;6.60;4.67;;;;;;;;;;6363442;22;20762;-57
2021/08/25 11:24:34;;;;;;;6.68;4.45;;;;;;;;;;6363670;22;20338;-58
2021/08/25 11:27:00;;;;;;;5.55;4.30;;;;;;;;;;6363087;22;20636;-54
2021/08/25 11:29:26;;;;;;;6.25;4.53;;;;;;;;;;6363782;22;20339;-56
2021/08/25 11:31:52;;;;;;;5.50;4.20;;;;;;;;;;6363586;22;20342;-54
2021/08/25 11:34:20;;;;;;;6.45;4.57;;;;;;;;;;6362552;22;20467;-55
2021/08/25 11:37:12;;;;;;;6.55;4.20;;;;;;;;;;6362492;22;20886;-52
2021/08/25 11:39:38;;;;;;;6.50;4.43;;;;;;;;;;6357157;22;20361;-52
2021/08/25 11:42:04;;;;;;;5.60;4.00;;;;;;;;;;6363699;22;20461;-55
2021/08/25 11:44:43;;;;;;;5.50;4.47;;;;;;;;;;6364014;22;20729;-57
2021/08/25 11:47:13;;;;;;;6.10;4.30;;;;;;;;;;6363620;22;20879;-56
2021/08/25 11:49:40;;;;;;;5.57;4.32;;;;;;;;;;6363719;22;20415;-56
2021/08/25 11:52:10;;;;;;;6.25;4.63;;;;;;;;;;6363604;22;20346;-56
2021/08/25 11:54:39;;;;;;;6.72;4.55;;;;;;;;;;6364406;22;20331;-55
2021/08/25 11:57:08;;;;;;;6.60;4.65;;;;;;;;;;6364010;22;20689;-53
2021/08/25 11:59:34;;;;;;;5.72;4.47;;;;;;;;;;6363978;22;20384;-53
2021/08/25 12:02:04;;;;;;;7.03;4.70;;;;;;;;;;6366158;22;20366;-53
2021/08/25 12:04:30;;;;;;;6.17;4.60;;;;;;;;;;6365733;22;21023;-54
2021/08/25 12:06:57;;;;;;;5.78;4.38;;;;;;;;;;6365742;22;20626;-53
2021/08/25 12:09:33;;;;;;;6.18;4.80;;;;;;;;;;6366054;22;20347;-52
2021/08/25 12:11:59;;;;;;;5.43;4.20;;;;;;;;;;6366372;22;20327;-54
2021/08/25 12:14:25;;;;;;;5.28;4.47;;;;;;;;;;6365897;22;20331;-53
2021/08/25 12:17:04;;;;;;;6.25;4.15;;;;;;;;;;6365807;22;20408;-53
2021/08/25 12:19:34;;;;;;;5.50;4.37;;;;;;;;;;6365964;22;20544;-56
2021/08/25 12:22:18;;;;;;;6.35;4.60;;;;;;;;;;6331916;22;20432;-55
2021/08/25 12:24:44;;;;;;;8.10;4.43;;;;;;;;;;6332227;22;20373;-56
2021/08/25 12:27:10;;;;;;;7.50;4.53;;;;;;;;;;6333585;22;20333;-56
2021/08/25 12:29:36;;;;;;;6.40;4.50;;;;;;;;;;6333794;22;20361;-58
2021/08/25 12:32:03;;;;;;;6.20;4.53;;;;;;;;;;6334226;22;20344;-57
2021/08/25 12:34:29;;;;;;;7.37;4.50;;;;;;;;;;6332407;22;20345;-59
2021/08/25 12:36:56;;;;;;;5.57;4.40;;;;;;;;;;6331587;22;20363;-59
2021/08/25 12:39:26;;;;;;;5.97;4.40;;;;;;;;;;6330818;22;20357;-61
2021/08/25 12:41:53;;;;;;;5.22;4.20;;;;;;;;;;6333616;22;20364;-59
2021/08/25 12:44:19;;;;;;;5.45;4.28;;;;;;;;;;6333719;22;20332;-60
2021/08/25 12:46:53;;;;;;;5.47;4.38;;;;;;;;;;6333644;22;20336;-60
2021/08/25 12:49:23;;;;;;;6.03;4.18;;;;;;;;;;6332316;22;20384;-59
2021/08/25 12:51:50;;;;;;;7.15;4.50;;;;;;;;;;6333479;22;20320;-58
2021/08/25 12:54:19;;;;;;;5.80;4.60;;;;;;;;;;6333230;22;20464;-60
2021/08/25 12:56:45;;;;;;;7.18;4.55;;;;;;;;;;6330968;22;20604;-60
2021/08/25 12:59:12;;;;;;;5.15;4.40;;;;;;;;;;6332866;22;20389;-61
2021/08/25 13:01:41;;;;;;;5.90;4.22;;;;;;;;;;6333701;22;20364;-60
2021/08/25 13:04:07;;;;;;;5.97;4.20;;;;;;;;;;6332680;22;20381;-59
2021/08/25 13:06:35;;;;;;;5.90;4.20;;;;;;;;;;6331711;22;20337;-59
2021/08/25 13:09:01;;;;;;;5.22;4.00;;;;;;;;;;6334051;22;20340;-59
2021/08/25 13:11:27;;;;;;;5.80;4.13;;;;;;;;;;6333036;22;22126;-61
2021/08/25 13:13:55;;;;;;;6.30;4.53;;;;;;;;;;6333310;22;20408;-60
2021/08/25 13:16:21;;;;;;;6.38;4.30;;;;;;;;;;6333561;22;20491;-59
2021/08/25 13:18:47;;;;;;;6.00;4.55;;;;;;;;;;6331870;22;20341;-59
2021/08/25 13:21:13;;;;;;;5.82;4.35;;;;;;;;;;6332903;22;20364;-60
2021/08/25 13:23:39;;;;;;;6.23;4.47;;;;;;;;;;6362419;22;20823;-59
2021/08/25 13:26:05;;;;;;;5.90;4.47;;;;;;;;;;6364772;22;20779;-59
2021/08/25 13:28:32;;;;;;;5.75;4.50;;;;;;;;;;6365044;22;20323;-59
2021/08/25 13:30:58;;;;;;;6.05;4.72;;;;;;;;;;6365981;22;20330;-58
2021/08/25 13:33:25;;;;;;;7.45;4.88;;;;;;;;;;6365400;22;20384;-58
2021/08/25 13:35:51;;;;;;;5.90;4.40;;;;;;;;;;6364378;22;20383;-56
2021/08/25 13:38:17;;;;;;;7.10;4.65;;;;;;;;;;6364762;22;20339;-55
2021/08/25 13:40:43;;;;;;;6.82;4.47;;;;;;;;;;6336787;22;20391;-59
2021/08/25 13:43:10;;;;;;;6.83;4.40;;;;;;;;;;6365505;22;21032;-59
2021/08/25 13:45:36;;;;;;;5.88;4.50;;;;;;;;;;6365748;22;20362;-59
2021/08/25 13:48:03;;;;;;;7.07;4.68;;;;;;;;;;6364966;22;20649;-56
2021/08/25 13:50:29;;;;;;;7.93;4.93;;;;;;;;;;6364459;22;20411;-55
2021/08/25 13:52:55;;;;;;;6.78;4.63;;;;;;;;;;6364917;22;20316;-60
2021/08/25 13:55:21;;;;;;;7.57;4.75;;;;;;;;;;6365258;22;20349;-58
2021/08/25 13:57:48;;;;;;;6.72;4.55;;;;;;;;;;6365007;22;20338;-60
2021/08/25 14:00:14;;;;;;;12.20;4.55;;;;;;;;;;6364802;22;20384;-62
2021/08/25 14:02:40;;;;;;;7.40;4.38;;;;;;;;;;6363967;22;20393;-61
2021/08/25 14:05:06;;;;;;;6.93;4.40;;;;;;;;;;6362574;22;20449;-63
2021/08/25 14:07:32;;;;;;;6.72;4.60;;;;;;;;;;6362535;22;20334;-62
2021/08/25 14:09:58;;;;;;;6.80;4.40;;;;;;;;;;6362662;22;20491;-63
2021/08/25 14:12:25;;;;;;;7.47;4.50;;;;;;;;;;6362072;22;20488;-63
2021/08/25 14:14:51;;;;;;;6.73;4.20;;;;;;;;;;6362091;22;20710;-62
2021/08/25 14:17:17;;;;;;;6.50;4.70;;;;;;;;;;6362093;22;20315;-63
2021/08/25 14:19:43;;;;;;;7.07;4.23;;;;;;;;;;6364569;22;20334;-62
2021/08/25 14:22:09;;;;;;;5.97;3.90;;;;;;;;;;6364610;22;20374;-63
2021/08/25 14:24:35;;;;;;;7.07;5.00;;;;;;;;;;6364374;22;20331;-62
2021/08/25 14:27:01;;;;;;;7.43;4.20;;;;;;;;;;6364564;22;20331;-62
2021/08/25 14:29:27;;;;;;;6.40;4.50;;;;;;;;;;6364341;22;20621;-62
2021/08/25 14:31:54;;;;;;;7.60;4.30;;;;;;;;;;6364488;22;20847;-62
2021/08/25 14:34:20;;;;;;;6.35;4.30;;;;;;;;;;6364531;22;20355;-62
2021/08/25 14:36:46;;;;;;;6.75;4.20;;;;;;;;;;6364305;22;20320;-62
2021/08/25 14:39:12;;;;;;;6.68;4.13;;;;;;;;;;6364208;22;20430;-62
2021/08/25 14:41:38;;;;;;;6.05;4.00;;;;;;;;;;6364063;22;20375;-65
2021/08/25 14:44:04;;;;;;;6.10;3.90;;;;;;;;;;6364982;22;20327;-63
2021/08/25 14:46:30;;;;;;;6.25;3.97;;;;;;;;;;6364887;22;20410;-62
2021/08/25 14:48:59;;;;;;;6.70;4.20;;;;;;;;;;6363997;22;20324;-62
2021/08/25 14:51:25;;;;;;;5.75;4.10;;;;;;;;;;6363893;22;20338;-62
2021/08/25 14:53:51;;;;;;;6.00;4.13;;;;;;;;;;6363846;22;20664;-62
2021/08/25 14:56:17;;;;;;;5.95;4.25;;;;;;;;;;6364823;22;20332;-63
2021/08/25 14:58:43;;;;;;;5.00;4.03;;;;;;;;;;6363913;22;20315;-63
2021/08/25 15:01:09;;;;;;;5.72;3.88;;;;;;;;;;6335761;22;21035;-62
2021/08/25 15:03:37;;;;;;;5.75;3.63;;;;;;;;;;6364484;22;20697;-62
2021/08/25 15:06:04;;;;;;;5.10;3.70;;;;;;;;;;6364332;22;20337;-62
2021/08/25 15:08:30;;;;;;;5.40;4.03;;;;;;;;;;6363910;22;20886;-62
2021/08/25 15:10:57;;;;;;;6.35;3.80;;;;;;;;;;6364065;22;20335;-62
2021/08/25 15:13:23;;;;;;;5.88;4.07;;;;;;;;;;6364672;22;20369;-64
2021/08/25 15:15:49;;;;;;;4.53;3.50;;;;;;;;;;6364332;22;20339;-62
2021/08/25 15:18:15;;;;;;;5.93;3.90;;;;;;;;;;6364296;22;20319;-64
2021/08/25 15:20:41;;;;;;;5.95;3.80;;;;;;;;;;6334831;22;20415;-63
2021/08/25 15:23:07;;;;;;;6.40;4.20;;;;;;;;;;6363441;22;20811;-62
2021/08/25 15:25:37;;;;;;;6.13;3.97;;;;;;;;;;6363910;22;20384;-62
2021/08/25 15:28:06;;;;;;;5.37;4.23;;;;;;;;;;6363349;22;20328;-61
2021/08/25 15:30:32;;;;;;;5.50;4.07;;;;;;;;;;6335623;22;20347;-63
2021/08/25 15:32:58;;;;;;;7.15;4.25;;;;;;;;;;6363242;22;20667;-62
2021/08/25 15:35:26;;;;;;;5.88;4.18;;;;;;;;;;6364247;22;20331;-65
2021/08/25 15:37:53;;;;;;;6.38;4.20;;;;;;;;;;6365941;22;20324;-65
2021/08/25 15:40:19;;;;;;;5.65;3.90;;;;;;;;;;6365560;22;20343;-62
2021/08/25 15:42:45;;;;;;;7.05;4.05;;;;;;;;;;6366100;22;20367;-56
2021/08/25 15:45:11;;;;;;;6.78;4.40;;;;;;;;;;6366285;22;20316;-54
2021/08/25 15:47:37;;;;;;;8.80;4.78;;;;;;;;;;6338138;22;20362;-64
2021/08/25 15:50:04;;;;;;;7.93;4.20;;;;;;;;;;6366310;22;20319;-62
2021/08/25 15:52:30;;;;;;;7.03;4.47;;;;;;;;;;6365921;22;20354;-60
2021/08/25 15:54:56;;;;;;;7.40;4.13;;;;;;;;;;6365266;22;21030;-63
2021/08/25 15:57:23;;;;;;;6.30;4.50;;;;;;;;;;6365806;22;20744;-62
2021/08/25 15:59:52;;;;;;;7.13;4.38;;;;;;;;;;6366212;22;20330;-64
2021/08/25 16:02:19;;;;;;;7.55;4.60;;;;;;;;;;6365949;22;20445;-64
2021/08/25 16:04:45;;;;;;;7.85;4.78;;;;;;;;;;6365904;22;20465;-63
2021/08/25 16:07:12;;;;;;;7.18;4.82;;;;;;;;;;6366644;22;20319;-64
2021/08/25 16:09:38;;;;;;;6.93;4.72;;;;;;;;;;6366074;22;20411;-65
2021/08/25 16:12:05;;;;;;;8.23;4.90;;;;;;;;;;6365844;22;20319;-59
2021/08/25 16:14:31;;;;;;;7.35;4.72;;;;;;;;;;6365266;22;20324;-70
2021/08/25 16:17:05;;;;;;;6.97;4.70;;;;;;;;;;6364740;22;20740;-69
2021/08/25 16:19:34;;;;;;;7.03;4.85;;;;;;;;;;6364079;22;20434;-68
2021/08/25 16:22:03;;;;;;;8.03;5.10;;;;;;;;;;6337404;22;20390;-69
2021/08/25 16:24:32;;;;;;;6.43;4.63;;;;;;;;;;6338569;22;20355;-68
2021/08/25 16:27:01;;;;;;;8.50;4.83;;;;;;;;;;6337745;22;20344;-63
2021/08/25 16:29:31;;;;;;;8.70;4.93;;;;;;;;;;6357873;22;20338;-71
2021/08/25 16:32:03;;;;;;;9.50;5.20;;;;;;;;;;6365890;22;20342;-70
2021/08/25 16:34:29;;;;;;;7.50;5.20;;;;;;;;;;6337780;22;20601;-74
2021/08/25 16:36:55;;;;;;;7.10;4.50;;;;;;;;;;6337234;22;20348;-73
2021/08/25 16:39:21;;;;;;;7.10;4.60;;;;;;;;;;6365307;22;20347;-73
2021/08/25 16:41:53;;;;;;;6.97;4.72;;;;;;;;;;6365588;22;20378;-75
2021/08/25 16:44:22;;;;;;;6.50;4.60;;;;;;;;;;6336298;22;20340;-73
2021/08/25 16:46:51;;;;;;;7.40;4.90;;;;;;;;;;6336705;22;20339;-71
2021/08/25 16:49:19;;;;;;;8.07;4.80;;;;;;;;;;6337409;22;20363;-72
2021/08/25 16:51:50;;;;;;;9.05;4.95;;;;;;;;;;6365458;22;20400;-70
2021/08/25 16:54:22;;;;;;;7.20;4.65;;;;;;;;;;6365348;22;20423;-72
2021/08/25 16:56:48;;;;;;;7.57;4.97;;;;;;;;;;6365803;22;20419;-72
2021/08/25 16:59:17;;;;;;;7.40;4.93;;;;;;;;;;6365129;22;20860;-72
2021/08/25 17:01:43;;;;;;;7.78;4.90;;;;;;;;;;6365388;22;20359;-73
2021/08/25 17:04:09;;;;;;;7.28;4.78;;;;;;;;;;6365525;22;20332;-71
2021/08/25 17:06:38;;;;;;;6.20;4.60;;;;;;;;;;6337247;22;20338;-73
2021/08/25 17:09:04;;;;;;;7.35;4.70;;;;;;;;;;6365482;22;20404;-73
2021/08/25 17:11:32;;;;;;;7.28;5.03;;;;;;;;;;6365028;22;20404;-75
2021/08/25 17:14:03;;;;;;;6.40;4.67;;;;;;;;;;6365711;22;20328;-73
2021/08/25 17:16:34;;;;;;;7.57;5.00;;;;;;;;;;6365466;22;20335;-73
2021/08/25 17:19:02;;;;;;;7.00;4.78;;;;;;;;;;6364171;22;20335;-73
2021/08/25 17:21:28;;;;;;;8.10;4.90;;;;;;;;;;6364788;22;20371;-72
2021/08/25 17:23:54;;;;;;;6.67;4.57;;;;;;;;;;6365597;22;20370;-73
2021/08/25 17:26:23;;;;;;;7.40;4.70;;;;;;;;;;6365462;22;20353;-73
2021/08/25 17:28:54;;;;;;;7.18;4.90;;;;;;;;;;6364609;22;20339;-73
2021/08/25 17:31:25;;;;;;;7.03;5.10;;;;;;;;;;6365195;22;20429;-72
2021/08/25 17:33:55;;;;;;;6.95;4.90;;;;;;;;;;6365588;22;20420;-73
2021/08/25 17:36:26;;;;;;;7.28;4.82;;;;;;;;;;6365209;22;20866;-71
2021/08/25 17:38:57;;;;;;;5.93;4.50;;;;;;;;;;6365390;22;20843;-73
2021/08/25 17:41:26;;;;;;;7.18;4.95;;;;;;;;;;6365006;22;20362;-72
2021/08/25 17:44:00;;;;;;;7.38;4.50;;;;;;;;;;6365123;22;20352;-74
2021/08/25 17:46:31;;;;;;;6.20;4.77;;;;;;;;;;6365020;22;20335;-73
2021/08/25 17:49:02;;;;;;;7.10;4.90;;;;;;;;;;6335400;22;20406;-72
2021/08/25 17:51:31;;;;;;;7.28;4.97;;;;;;;;;;6364756;22;20423;-71
2021/08/25 17:53:57;;;;;;;6.40;4.85;;;;;;;;;;6364254;22;20648;-71
2021/08/25 17:56:28;;;;;;;7.75;5.07;;;;;;;;;;6365071;22;20327;-71
2021/08/25 17:59:01;;;;;;;6.63;4.90;;;;;;;;;;6364803;22;20403;-66
2021/08/25 18:01:33;;;;;;;6.43;4.82;;;;;;;;;;6364806;22;20392;-64
2021/08/25 18:04:04;;;;;;;6.77;4.80;;;;;;;;;;6365411;22;20411;-66
2021/08/25 18:06:32;;;;;;;6.43;4.55;;;;;;;;;;6364559;22;20347;-68
2021/08/25 18:09:01;;;;;;;7.47;4.80;;;;;;;;;;6364913;22;20346;-66
2021/08/25 18:11:29;;;;;;;6.45;4.80;;;;;;;;;;6364377;22;20346;-67
2021/08/25 18:13:56;;;;;;;7.25;4.75;;;;;;;;;;6364355;22;20422;-68
2021/08/25 18:16:24;;;;;;;6.03;4.43;;;;;;;;;;6364407;22;20739;-65
2021/08/25 18:18:51;;;;;;;6.53;4.80;;;;;;;;;;6364921;22;20350;-67
2021/08/25 18:21:29;;;;;;;6.65;4.57;;;;;;;;;;6364444;22;20375;-67
2021/08/25 18:23:59;;;;;;;6.90;4.80;;;;;;;;;;6363918;22;20378;-67
2021/08/25 18:26:28;;;;;;;6.28;4.80;;;;;;;;;;6364392;22;20394;-67
2021/08/25 18:28:55;;;;;;;6.87;4.83;;;;;;;;;;6364125;22;20386;-66
2021/08/25 18:31:23;;;;;;;7.10;4.90;;;;;;;;;;6364200;22;20664;-66
2021/08/25 18:33:55;;;;;;;7.60;4.90;;;;;;;;;;6364027;22;20344;-67
2021/08/25 18:36:23;;;;;;;7.40;5.03;;;;;;;;;;6336192;22;20740;-66
2021/08/25 18:38:49;;;;;;;6.05;4.53;;;;;;;;;;6364732;22;20372;-65
2021/08/25 18:41:15;;;;;;;6.72;4.72;;;;;;;;;;6364370;22;20351;-65
2021/08/25 18:43:41;;;;;;;5.90;4.60;;;;;;;;;;6363956;22;20349;-66
2021/08/25 18:46:10;;;;;;;6.97;4.90;;;;;;;;;;6364365;22;20311;-66
2021/08/25 18:48:38;;;;;;;7.53;4.68;;;;;;;;;;6364160;22;20839;-66
2021/08/25 18:51:10;;;;;;;6.32;4.82;;;;;;;;;;6364279;22;20616;-67
2021/08/25 18:53:36;;;;;;;6.32;4.53;;;;;;;;;;6364068;22;20600;-66
2021/08/25 18:56:04;;;;;;;6.93;5.13;;;;;;;;;;6364411;22;20330;-66
2021/08/25 18:58:33;;;;;;;6.28;4.72;;;;;;;;;;6364521;22;20327;-67
2021/08/25 19:00:59;;;;;;;6.63;4.53;;;;;;;;;;6363890;22;20381;-66
2021/08/25 19:03:25;;;;;;;6.75;4.57;;;;;;;;;;6336189;22;20402;-65
2021/08/25 19:05:51;;;;;;;6.80;4.63;;;;;;;;;;6364246;22;20332;-67
2021/08/25 19:08:20;;;;;;;6.10;4.43;;;;;;;;;;6364431;22;20385;-65
2021/08/25 19:10:47;;;;;;;6.95;4.97;;;;;;;;;;6336071;22;20374;-66
2021/08/25 19:13:13;;;;;;;6.88;4.68;;;;;;;;;;6364984;22;20373;-66
2021/08/25 19:15:39;;;;;;;7.07;4.80;;;;;;;;;;6364735;22;20359;-66
2021/08/25 19:18:11;;;;;;;7.57;4.72;;;;;;;;;;6364784;22;20403;-67
2021/08/25 19:20:37;;;;;;;6.40;5.10;;;;;;;;;;6364349;22;20819;-67
2021/08/25 19:23:03;;;;;;;7.18;4.90;;;;;;;;;;6364648;22;20393;-68
2021/08/25 19:25:35;;;;;;;6.60;4.95;;;;;;;;;;6364012;22;20351;-66
2021/08/25 19:28:01;;;;;;;6.83;4.83;;;;;;;;;;6363785;22;20411;-66
2021/08/25 19:30:28;;;;;;;6.63;4.75;;;;;;;;;;6336539;22;20423;-69
2021/08/25 19:32:57;;;;;;;7.18;5.00;;;;;;;;;;6336425;22;20382;-68
2021/08/25 19:35:23;;;;;;;7.30;5.45;;;;;;;;;;6364723;22;20319;-67
2021/08/25 19:37:50;;;;;;;7.68;5.55;;;;;;;;;;6336019;22;20347;-60
2021/08/25 21:04:11;;;;;;;8.70;6.53;;;;;;;;;;6309781;22;20468;-66
2021/08/25 21:06:37;;;;;;;10.30;6.40;;;;;;;;;;6332379;22;20349;-66
2021/08/25 21:09:04;;;;;;;10.30;6.70;;;;;;;;;;6333634;22;20345;-67
2021/08/25 21:11:30;;;;;;;8.60;6.40;;;;;;;;;;6333508;22;20420;-68
2021/08/25 21:13:56;;;;;;;11.00;6.28;;;;;;;;;;6333300;22;20390;-69
2021/08/25 21:16:22;;;;;;;7.15;5.70;;;;;;;;;;6334324;22;20337;-68
2021/08/25 21:18:48;;;;;;;8.63;6.18;;;;;;;;;;6334222;22;20410;-69
2021/08/25 21:21:14;;;;;;;8.63;5.93;;;;;;;;;;6333855;22;20368;-67
2021/08/25 21:23:40;;;;;;;8.00;6.00;;;;;;;;;;6334765;22;20333;-68
2021/08/25 21:26:06;;;;;;;7.88;5.85;;;;;;;;;;6307089;22;20405;-70
2021/08/25 21:28:33;;;;;;;7.68;6.10;;;;;;;;;;6333976;22;20765;-65
